createdAt,value
2023-01-28T00:00:05.099Z,2.9
2023-01-28T00:05:05.089Z,3.2
2023-01-28T00:10:05.140Z,2.9
2023-01-28T00:15:05.115Z,3.3
2023-01-28T00:20:05.089Z,3.3
2023-01-28T00:25:05.095Z,3.2
2023-01-28T00:30:05.094Z,3.2
2023-01-28T00:35:05.096Z,3
2023-01-28T00:40:05.106Z,3.4
2023-01-28T00:45:05.088Z,3.5
2023-01-28T00:50:05.149Z,3.3
2023-01-28T00:55:05.083Z,4.2
2023-01-28T01:00:05.197Z,4.2
2023-01-28T01:05:05.092Z,4
2023-01-28T01:10:05.144Z,3.8
2023-01-28T01:15:05.089Z,3.9
2023-01-28T01:20:05.088Z,4
2023-01-28T01:25:05.086Z,4
2023-01-28T01:30:05.093Z,4
2023-01-28T01:35:05.091Z,4.3
2023-01-28T01:40:05.146Z,3.5
2023-01-28T01:45:05.092Z,4.4
2023-01-28T01:50:05.094Z,4.3
2023-01-28T01:55:05.089Z,3.5
2023-01-28T02:00:05.090Z,3.5
2023-01-28T02:05:05.092Z,3.8
2023-01-28T02:10:05.098Z,3.2
2023-01-28T02:15:05.089Z,3.4
2023-01-28T02:20:05.281Z,3.2
2023-01-28T02:25:05.091Z,3.3
2023-01-28T02:30:05.098Z,3.3
2023-01-28T02:35:05.086Z,3.8
2023-01-28T02:40:05.121Z,3.6
2023-01-28T02:45:05.122Z,3.6
2023-01-28T02:50:05.119Z,4.2
2023-01-28T02:55:05.120Z,3.1
2023-01-28T03:00:05.203Z,3.1
2023-01-28T03:05:05.101Z,3.2
2023-01-28T03:10:05.179Z,3
2023-01-28T03:15:05.144Z,2.6
2023-01-28T03:20:05.098Z,3.5
2023-01-28T03:25:05.168Z,3.1
2023-01-28T03:30:05.098Z,3.1
2023-01-28T03:35:05.223Z,3.4
2023-01-28T03:40:05.093Z,3.3
2023-01-28T03:45:05.242Z,3.7
2023-01-28T03:50:05.141Z,3
2023-01-28T03:55:05.079Z,3.3
2023-01-28T04:00:05.213Z,3.3
2023-01-28T04:05:05.081Z,3.1
2023-01-28T04:10:05.094Z,3.5
2023-01-28T04:15:05.097Z,3.8
2023-01-28T04:20:05.089Z,3.9
2023-01-28T04:25:05.086Z,4.1
2023-01-28T04:30:05.123Z,4.1
2023-01-28T04:35:05.088Z,4.1
2023-01-28T04:40:05.095Z,4.7
2023-01-28T04:45:05.102Z,4.5
2023-01-28T04:50:05.101Z,4.6
2023-01-28T04:55:05.107Z,4.9
2023-01-28T05:00:05.090Z,4.9
2023-01-28T05:05:05.092Z,4.7
2023-01-28T05:10:05.113Z,4.8
2023-01-28T05:15:05.115Z,5.2
2023-01-28T05:20:05.109Z,5.7
2023-01-28T05:25:05.107Z,5.1
2023-01-28T05:30:05.091Z,5.1
2023-01-28T05:35:05.104Z,5.8
2023-01-28T05:40:05.101Z,6.1
2023-01-28T05:45:05.092Z,5.9
2023-01-28T05:50:05.097Z,5.3
2023-01-28T05:55:05.087Z,6.5
2023-01-28T06:00:05.129Z,6.5
2023-01-28T06:05:05.088Z,6.2
2023-01-28T06:10:05.095Z,5.2
2023-01-28T06:15:05.086Z,6.5
2023-01-28T06:20:05.096Z,6.7
2023-01-28T06:25:05.104Z,6.6
2023-01-28T06:30:05.115Z,6.6
2023-01-28T06:35:05.094Z,6
2023-01-28T06:40:05.089Z,7
2023-01-28T06:45:05.088Z,6.9
2023-01-28T06:50:05.102Z,7.2
2023-01-28T06:55:05.205Z,7
2023-01-28T07:00:05.094Z,7
2023-01-28T07:05:05.092Z,6.4
2023-01-28T07:10:05.088Z,6.7
2023-01-28T07:15:05.089Z,7.2
2023-01-28T07:20:05.083Z,6.6
2023-01-28T07:25:05.083Z,7.2
2023-01-28T07:30:05.101Z,7.2
2023-01-28T07:35:05.088Z,6.6
2023-01-28T07:40:05.114Z,6.4
2023-01-28T07:45:05.100Z,6.7
2023-01-28T07:50:05.101Z,6.3
2023-01-28T07:55:05.094Z,6.3
2023-01-28T08:00:05.097Z,6.3
2023-01-28T08:05:05.311Z,5.5
2023-01-28T08:10:05.097Z,4.8
2023-01-28T08:15:05.084Z,4.8
2023-01-28T08:20:05.105Z,5.3
2023-01-28T08:25:05.093Z,6
2023-01-28T08:30:05.090Z,6
2023-01-28T08:35:05.096Z,5.8
2023-01-28T08:40:05.099Z,5.7
2023-01-28T08:45:05.098Z,6.6
2023-01-28T08:50:05.104Z,5.9
2023-01-28T08:55:05.093Z,5.7
2023-01-28T09:00:05.092Z,5.7
2023-01-28T09:05:05.082Z,5.5
2023-01-28T09:10:05.093Z,6.2
2023-01-28T09:15:05.091Z,6
2023-01-28T09:20:05.117Z,7.2
2023-01-28T09:25:05.090Z,5.5
2023-01-28T09:30:05.087Z,5.5
2023-01-28T09:35:05.093Z,5.6
2023-01-28T09:40:05.090Z,5.7
2023-01-28T09:45:05.094Z,5.8
2023-01-28T09:50:05.098Z,5.6
2023-01-28T09:55:05.096Z,5.6
2023-01-28T10:00:05.100Z,5.6
2023-01-28T10:05:05.109Z,5.3
2023-01-28T10:10:05.099Z,5.2
2023-01-28T10:15:05.092Z,5.8
2023-01-28T10:20:05.094Z,5.4
2023-01-28T10:25:05.092Z,4.6
2023-01-28T10:30:05.103Z,4.6
2023-01-28T10:35:05.090Z,5.1
2023-01-28T10:40:05.104Z,5.1
2023-01-28T10:45:05.095Z,4.8
2023-01-28T10:50:05.096Z,5.3
2023-01-28T10:55:05.128Z,5.6
2023-01-28T11:00:05.099Z,5.6
2023-01-28T11:05:05.083Z,5.6
2023-01-28T11:10:05.100Z,5.3
2023-01-28T11:15:05.094Z,5.3
2023-01-28T11:20:05.091Z,5
2023-01-28T11:25:05.100Z,4.9
2023-01-28T11:30:05.102Z,4.9
2023-01-28T11:35:05.092Z,5.1
2023-01-28T11:40:05.099Z,5.2
2023-01-28T11:45:05.083Z,5.8
2023-01-28T11:50:05.109Z,5.3
2023-01-28T11:55:05.096Z,5.2
2023-01-28T12:00:05.106Z,5.2
2023-01-28T12:05:05.131Z,5.7
2023-01-28T12:10:05.107Z,5.8
2023-01-28T12:15:05.084Z,6.6
2023-01-28T12:20:05.089Z,6
2023-01-28T12:25:05.092Z,5.9
2023-01-28T12:30:05.087Z,5.9
2023-01-28T12:35:05.086Z,5.2
2023-01-28T12:40:05.089Z,5.5
2023-01-28T12:45:05.091Z,5.6
2023-01-28T12:50:05.166Z,6
2023-01-28T12:55:05.092Z,5.4
2023-01-28T13:00:05.093Z,5.4
2023-01-28T13:05:05.082Z,5.8
2023-01-28T13:10:05.113Z,5.1
2023-01-28T13:15:05.112Z,5.4
2023-01-28T13:20:05.091Z,5.4
2023-01-28T13:25:05.085Z,3.9
2023-01-28T13:30:05.088Z,3.9
2023-01-28T13:35:05.134Z,4.1
2023-01-28T13:40:05.116Z,5.6
2023-01-28T13:45:05.086Z,4.9
2023-01-28T13:50:05.105Z,4.7
2023-01-28T13:55:05.089Z,4.7
2023-01-28T14:00:05.095Z,4.7
2023-01-28T14:05:05.090Z,4.4
2023-01-28T14:10:05.155Z,4.1
2023-01-28T14:15:05.088Z,3.9
2023-01-28T14:20:05.109Z,4.1
2023-01-28T14:25:05.096Z,3.7
2023-01-28T14:30:05.094Z,3.7
2023-01-28T14:35:05.083Z,4.5
2023-01-28T14:40:05.092Z,2.9
2023-01-28T14:45:05.090Z,3.2
2023-01-28T14:50:05.111Z,3.3
2023-01-28T14:55:05.107Z,4
2023-01-28T15:00:05.128Z,4
2023-01-28T15:05:05.088Z,3.9
2023-01-28T15:10:05.173Z,3.7
2023-01-28T15:15:05.100Z,3.1
2023-01-28T15:20:05.158Z,3.1
2023-01-28T15:25:05.088Z,3.6
2023-01-28T15:30:05.154Z,3.6
2023-01-28T15:35:05.094Z,3.5
2023-01-28T15:40:05.097Z,4.1
2023-01-28T15:45:05.091Z,3.4
2023-01-28T15:50:05.095Z,3.8
2023-01-28T15:55:05.094Z,3.9
2023-01-28T16:00:05.106Z,3.9
2023-01-28T16:05:05.109Z,4.3
2023-01-28T16:10:05.100Z,3.9
2023-01-28T16:15:05.114Z,3.8
2023-01-28T16:20:05.115Z,3.7
2023-01-28T16:25:05.107Z,4.4
2023-01-28T16:30:05.103Z,4.4
2023-01-28T16:35:05.095Z,4.2
2023-01-28T16:40:05.090Z,4
2023-01-28T16:45:05.096Z,4.3
2023-01-28T16:50:05.097Z,4.3
2023-01-28T16:55:05.082Z,5.1
2023-01-28T17:00:05.093Z,5.1
2023-01-28T17:05:05.095Z,4.6
2023-01-28T17:10:05.102Z,4.7
2023-01-28T17:15:05.089Z,4.6
2023-01-28T17:20:05.123Z,4.3
2023-01-28T17:25:05.093Z,4
2023-01-28T17:30:05.101Z,4
2023-01-28T17:35:05.100Z,4.4
2023-01-28T17:40:05.098Z,5.4
2023-01-28T17:45:05.097Z,5
2023-01-28T17:50:05.109Z,5.4
2023-01-28T17:55:05.083Z,5.2
2023-01-28T18:00:05.107Z,5.2
2023-01-28T18:05:05.136Z,5.4
2023-01-28T18:10:05.097Z,4.9
2023-01-28T18:15:05.103Z,5.5
2023-01-28T18:20:05.103Z,5.7
2023-01-28T18:25:05.115Z,5.2
2023-01-28T18:30:05.096Z,5.2
2023-01-28T18:35:05.085Z,5.2
2023-01-28T18:40:05.089Z,5.2
2023-01-28T18:45:05.094Z,5.6
2023-01-28T18:50:05.087Z,5.5
2023-01-28T18:55:05.089Z,5.3
2023-01-28T19:00:05.085Z,5.3
2023-01-28T19:05:05.085Z,5.1
2023-01-28T19:10:05.092Z,5.7
2023-01-28T19:15:05.099Z,5.7
2023-01-28T19:20:05.102Z,5.3
2023-01-28T19:25:05.087Z,6.1
2023-01-28T19:30:05.102Z,6.1
2023-01-28T19:35:05.082Z,7.1
2023-01-28T19:40:05.099Z,6
2023-01-28T19:45:05.106Z,5.4
2023-01-28T19:50:05.097Z,5.5
2023-01-28T19:55:05.096Z,5.3
2023-01-28T20:00:05.097Z,5.3
2023-01-28T20:05:05.087Z,5.7
2023-01-28T20:10:05.100Z,5.1
2023-01-28T20:15:05.083Z,5.1
2023-01-28T20:20:05.099Z,4.9
2023-01-28T20:25:05.093Z,5.1
2023-01-28T20:30:05.088Z,5.1
2023-01-28T20:35:05.092Z,5.8
2023-01-28T20:40:05.105Z,5.8
2023-01-28T20:45:05.140Z,6.3
2023-01-28T20:50:05.101Z,5.9
2023-01-28T20:55:05.140Z,5.9
2023-01-28T21:00:05.103Z,5.9
2023-01-28T21:05:05.080Z,5.4
2023-01-28T21:10:05.086Z,5.7
2023-01-28T21:15:05.088Z,5.7
2023-01-28T21:20:05.100Z,7.5
2023-01-28T21:25:05.564Z,6.3
2023-01-28T21:30:05.102Z,6.3
2023-01-28T21:35:05.085Z,6
2023-01-28T21:40:05.083Z,6.9
2023-01-28T21:45:05.089Z,6.4
2023-01-28T21:50:05.090Z,6.4
2023-01-28T21:55:05.118Z,5.9
2023-01-28T22:00:05.091Z,5.9
2023-01-28T22:05:05.089Z,5.9
2023-01-28T22:10:05.080Z,6.5
2023-01-28T22:15:05.083Z,6.4
2023-01-28T22:20:05.106Z,6.1
2023-01-28T22:25:05.220Z,6.1
2023-01-28T22:30:05.102Z,6.1
2023-01-28T22:35:05.088Z,6.1
2023-01-28T22:40:05.101Z,5.5
2023-01-28T22:45:05.094Z,6
2023-01-28T22:50:05.093Z,6.6
2023-01-28T22:55:05.094Z,6.8
2023-01-28T23:00:05.111Z,6.8
2023-01-28T23:05:05.096Z,6.6
2023-01-28T23:10:05.095Z,6.7
2023-01-28T23:15:05.100Z,6.5
2023-01-28T23:20:05.100Z,6.9
2023-01-28T23:25:05.091Z,6.7
2023-01-28T23:30:05.085Z,6.7
2023-01-28T23:35:05.093Z,6.8
2023-01-28T23:40:05.100Z,5.9
2023-01-28T23:45:05.083Z,6.3
2023-01-28T23:50:05.089Z,6.6
2023-01-28T23:55:05.110Z,7.2
